Time;durP1;ratioP1;P1;durP2;ratioP2;P2;SDS_P1;SDS_P2;PMS_P1;PMS_P2;Temp;Humidity;BMP_temperature;BMP_pressure;BME280_temperature;BME280_humidity;BME280_pressure;Samples;Min_cycle;Max_cycle;Signal;HPM_P1;HPM_P2
2022/03/06 00:00:29;;;;;;;28.15;17.73;;;;;;;;;;4937962;29;20047;-72
2022/03/06 00:02:55;;;;;;;29.83;16.33;;;;;;;;;;4937347;29;20036;-72
2022/03/06 00:05:21;;;;;;;26.95;15.25;;;;;;;;;;4937458;29;20068;-72
2022/03/06 00:07:47;;;;;;;24.13;14.18;;;;;;;;;;4939385;29;20042;-70
2022/03/06 00:10:13;;;;;;;22.00;13.98;;;;;;;;;;4937815;29;20031;-76
2022/03/06 00:12:39;;;;;;;25.33;14.40;;;;;;;;;;4921262;29;20028;-70
2022/03/06 00:15:06;;;;;;;22.23;14.13;;;;;;;;;;4918376;29;20032;-71
2022/03/06 00:17:35;;;;;;;24.95;15.73;;;;;;;;;;4926434;29;20156;-71
2022/03/06 00:20:02;;;;;;;26.55;14.93;;;;;;;;;;4919422;29;20467;-72
2022/03/06 00:22:29;;;;;;;23.10;14.15;;;;;;;;;;4944202;29;20037;-72
2022/03/06 00:24:57;;;;;;;24.08;13.88;;;;;;;;;;4937353;29;20086;-72
2022/03/06 00:27:23;;;;;;;20.90;12.82;;;;;;;;;;4937775;29;20020;-72
2022/03/06 00:29:49;;;;;;;22.63;13.77;;;;;;;;;;4937030;29;20086;-77
2022/03/06 00:32:15;;;;;;;22.85;13.82;;;;;;;;;;4936879;29;20034;-71
2022/03/06 00:34:42;;;;;;;21.63;13.85;;;;;;;;;;4937298;29;20558;-71
2022/03/06 00:37:08;;;;;;;19.80;14.05;;;;;;;;;;4931536;29;20047;-71
2022/03/06 00:39:34;;;;;;;23.02;14.48;;;;;;;;;;4934424;29;20155;-71
2022/03/06 00:42:08;;;;;;;28.20;14.38;;;;;;;;;;4941537;29;20031;-73
2022/03/06 00:44:34;;;;;;;;;;;;;;;;;;4952117;29;20028;-71
2022/03/06 00:47:00;;;;;;;22.63;13.23;;;;;;;;;;4936768;29;19914;-71
2022/03/06 00:49:26;;;;;;;24.15;13.77;;;;;;;;;;4937067;29;20050;-72
2022/03/06 00:51:53;;;;;;;22.23;13.80;;;;;;;;;;4939913;29;20388;-71
2022/03/06 00:54:19;;;;;;;25.88;13.77;;;;;;;;;;4926887;29;20482;-71
2022/03/06 00:57:07;;;;;;;23.02;13.52;;;;;;;;;;4917536;29;20415;-72
2022/03/06 00:59:35;;;;;;;24.17;14.13;;;;;;;;;;4917254;29;20096;-71
2022/03/06 01:02:02;;;;;;;24.33;13.55;;;;;;;;;;4919814;29;20079;-71
2022/03/06 01:04:28;;;;;;;24.10;13.60;;;;;;;;;;4926043;29;20545;-71
2022/03/06 01:06:54;;;;;;;22.00;13.95;;;;;;;;;;4937005;29;20115;-71
2022/03/06 01:09:22;;;;;;;22.83;13.45;;;;;;;;;;4935659;29;20397;-71
2022/03/06 01:11:48;;;;;;;20.70;13.02;;;;;;;;;;4936779;29;20177;-71
2022/03/06 01:14:14;;;;;;;22.20;12.60;;;;;;;;;;4936585;29;20036;-73
2022/03/06 01:16:40;;;;;;;22.05;12.93;;;;;;;;;;4932688;29;20032;-70
2022/03/06 01:19:08;;;;;;;22.40;13.98;;;;;;;;;;4930264;29;20492;-79
2022/03/06 01:21:35;;;;;;;24.23;14.00;;;;;;;;;;4918035;29;20047;-72
2022/03/06 01:24:01;;;;;;;25.83;13.90;;;;;;;;;;4917811;29;20032;-71
2022/03/06 01:26:27;;;;;;;21.67;12.68;;;;;;;;;;4930143;29;20020;-71
2022/03/06 01:28:53;;;;;;;22.80;13.35;;;;;;;;;;4942739;29;20032;-70
2022/03/06 01:31:19;;;;;;;19.77;12.05;;;;;;;;;;4936106;29;20043;-69
2022/03/06 01:33:47;;;;;;;19.33;12.40;;;;;;;;;;4936390;29;20082;-71
2022/03/06 01:36:13;;;;;;;18.23;12.25;;;;;;;;;;4939926;29;20058;-75
2022/03/06 01:38:39;;;;;;;19.10;12.15;;;;;;;;;;4937458;29;20122;-72
2022/03/06 01:41:06;;;;;;;22.73;12.70;;;;;;;;;;4936259;29;20031;-71
2022/03/06 01:43:32;;;;;;;20.10;12.85;;;;;;;;;;4950129;29;20086;-70
2022/03/06 01:45:59;;;;;;;21.42;13.30;;;;;;;;;;4935265;29;20537;-71
2022/03/06 01:48:25;;;;;;;18.63;12.20;;;;;;;;;;4935804;29;20481;-71
2022/03/06 01:50:51;;;;;;;18.58;12.05;;;;;;;;;;4936319;29;20027;-71
2022/03/06 01:53:17;;;;;;;20.83;12.07;;;;;;;;;;4939200;29;20024;-71
2022/03/06 01:55:44;;;;;;;22.90;12.05;;;;;;;;;;4935984;29;20027;-75
2022/03/06 01:58:13;;;;;;;26.23;14.82;;;;;;;;;;4936348;29;20363;-71
2022/03/06 02:00:44;;;;;;;19.75;12.75;;;;;;;;;;4942057;29;20078;-71
2022/03/06 02:03:10;;;;;;;20.25;12.50;;;;;;;;;;4936019;29;20079;-71
2022/03/06 02:05:38;;;;;;;23.02;13.88;;;;;;;;;;4937048;29;20439;-71
2022/03/06 02:08:05;;;;;;;23.20;14.32;;;;;;;;;;4936236;29;20027;-71
2022/03/06 02:10:35;;;;;;;26.83;13.57;;;;;;;;;;4944603;29;20023;-70
2022/03/06 02:13:01;;;;;;;19.83;13.43;;;;;;;;;;4936304;29;20401;-71
2022/03/06 02:15:27;;;;;;;21.25;12.15;;;;;;;;;;4936487;29;20040;-71
2022/03/06 02:17:53;;;;;;;17.75;12.63;;;;;;;;;;4937934;29;20020;-71
2022/03/06 02:20:25;;;;;;;21.13;12.45;;;;;;;;;;4937881;29;20035;-71
2022/03/06 02:22:55;;;;;;;23.20;12.98;;;;;;;;;;4939407;29;20520;-70
2022/03/06 02:25:25;;;;;;;22.17;12.52;;;;;;;;;;4939227;29;20518;-71
2022/03/06 02:27:52;;;;;;;21.67;13.65;;;;;;;;;;4940319;29;20027;-71
2022/03/06 02:30:20;;;;;;;20.38;12.77;;;;;;;;;;4940559;29;20028;-71
2022/03/06 02:32:47;;;;;;;19.75;12.48;;;;;;;;;;4940353;29;20091;-72
2022/03/06 02:35:14;;;;;;;21.48;13.00;;;;;;;;;;4944814;29;20046;-71
2022/03/06 02:37:40;;;;;;;21.33;13.15;;;;;;;;;;4942693;29;20023;-70
2022/03/06 02:40:07;;;;;;;20.27;13.18;;;;;;;;;;4939022;29;20031;-77
2022/03/06 02:42:34;;;;;;;21.52;13.57;;;;;;;;;;4938987;29;20036;-71
2022/03/06 02:45:01;;;;;;;20.40;12.80;;;;;;;;;;4942594;29;20024;-71
2022/03/06 02:47:30;;;;;;;21.38;12.85;;;;;;;;;;4939768;29;20031;-71
2022/03/06 02:49:56;;;;;;;20.20;12.50;;;;;;;;;;4944389;29;20504;-72
2022/03/06 02:52:22;;;;;;;21.90;12.88;;;;;;;;;;4938516;29;20466;-71
2022/03/06 02:55:01;;;;;;;23.52;13.20;;;;;;;;;;4939830;29;20086;-71
2022/03/06 02:57:30;;;;;;;26.55;14.23;;;;;;;;;;4945543;29;20020;-76
2022/03/06 02:59:56;;;;;;;24.27;13.82;;;;;;;;;;4937521;29;20023;-70
2022/03/06 03:02:23;;;;;;;28.77;13.90;;;;;;;;;;4939479;29;20043;-73
2022/03/06 03:04:49;;;;;;;23.30;14.18;;;;;;;;;;4939767;29;20402;-70
2022/03/06 03:07:15;;;;;;;22.85;13.55;;;;;;;;;;4939807;29;20034;-74
2022/03/06 03:09:41;;;;;;;21.45;13.57;;;;;;;;;;4939682;29;20027;-71
2022/03/06 03:12:21;;;;;;;20.80;12.93;;;;;;;;;;4945736;29;20031;-72
2022/03/06 03:14:47;;;;;;;20.33;12.77;;;;;;;;;;4945275;29;20127;-76
2022/03/06 03:17:15;;;;;;;20.80;12.93;;;;;;;;;;4938665;29;20055;-72
2022/03/06 03:19:44;;;;;;;18.85;12.07;;;;;;;;;;4942586;29;20031;-76
2022/03/06 03:22:13;;;;;;;20.00;12.48;;;;;;;;;;4942626;29;20028;-73
2022/03/06 03:24:39;;;;;;;19.98;12.55;;;;;;;;;;4938934;29;20036;-72
2022/03/06 03:27:05;;;;;;;22.13;12.63;;;;;;;;;;4938776;29;20395;-72
2022/03/06 03:29:35;;;;;;;22.15;12.50;;;;;;;;;;4939004;29;20121;-74
2022/03/06 03:32:01;;;;;;;22.42;12.65;;;;;;;;;;4938423;29;20071;-72
2022/03/06 03:34:28;;;;;;;20.70;12.38;;;;;;;;;;4928113;29;20040;-74
2022/03/06 03:36:54;;;;;;;21.00;13.10;;;;;;;;;;4919616;29;20024;-74
2022/03/06 03:39:20;;;;;;;22.52;13.65;;;;;;;;;;4919901;29;20024;-70
2022/03/06 03:41:46;;;;;;;19.75;12.93;;;;;;;;;;4919623;29;20054;-72
2022/03/06 03:44:12;;;;;;;19.80;13.00;;;;;;;;;;4922892;29;20036;-70
2022/03/06 03:46:38;;;;;;;19.70;12.48;;;;;;;;;;4938099;29;20035;-72
2022/03/06 03:49:07;;;;;;;24.00;13.07;;;;;;;;;;4939550;29;20150;-71
2022/03/06 03:51:36;;;;;;;19.45;12.60;;;;;;;;;;4938076;29;20028;-73
2022/03/06 03:54:02;;;;;;;17.50;12.05;;;;;;;;;;4938461;29;20497;-72
2022/03/06 03:56:28;;;;;;;20.40;12.55;;;;;;;;;;4939535;29;20078;-73
2022/03/06 03:59:00;;;;;;;18.63;12.63;;;;;;;;;;4941947;29;20027;-71
2022/03/06 04:01:26;;;;;;;21.85;12.05;;;;;;;;;;4937574;29;20169;-71
2022/03/06 04:03:52;;;;;;;22.13;12.52;;;;;;;;;;4938121;29;20036;-74
2022/03/06 04:06:26;;;;;;;22.50;13.75;;;;;;;;;;4939058;29;20035;-74
2022/03/06 04:08:53;;;;;;;18.70;12.25;;;;;;;;;;4940740;29;20023;-73
2022/03/06 04:11:20;;;;;;;18.85;11.82;;;;;;;;;;4942326;29;20023;-72
2022/03/06 04:13:46;;;;;;;20.80;12.57;;;;;;;;;;4939161;29;20032;-80
2022/03/06 04:16:12;;;;;;;18.02;12.30;;;;;;;;;;4938183;29;20032;-74
2022/03/06 04:18:38;;;;;;;19.33;12.85;;;;;;;;;;4946794;29;20056;-71
2022/03/06 04:21:04;;;;;;;19.83;12.10;;;;;;;;;;4938286;29;20056;-71
2022/03/06 04:23:30;;;;;;;18.85;11.65;;;;;;;;;;4940567;29;20031;-70
2022/03/06 04:25:56;;;;;;;18.80;11.48;;;;;;;;;;4937629;29;20034;-74
2022/03/06 04:28:22;;;;;;;17.45;11.43;;;;;;;;;;4936384;29;20054;-73
2022/03/06 04:30:48;;;;;;;20.00;12.63;;;;;;;;;;4937457;29;20102;-70
2022/03/06 04:33:16;;;;;;;20.27;12.60;;;;;;;;;;4937112;29;20030;-75
2022/03/06 04:35:49;;;;;;;18.70;12.23;;;;;;;;;;4943751;29;20043;-72
2022/03/06 04:38:15;;;;;;;20.50;11.93;;;;;;;;;;4938803;29;20054;-75
2022/03/06 04:40:41;;;;;;;22.77;12.23;;;;;;;;;;4939172;29;20039;-73
2022/03/06 04:43:07;;;;;;;19.90;12.77;;;;;;;;;;4939807;29;20086;-70
2022/03/06 04:45:33;;;;;;;22.27;12.80;;;;;;;;;;4937014;29;20024;-72
2022/03/06 04:48:00;;;;;;;23.30;11.82;;;;;;;;;;4937480;29;20058;-72
2022/03/06 04:50:26;;;;;;;20.42;12.25;;;;;;;;;;4937958;29;20028;-72
2022/03/06 04:52:52;;;;;;;19.48;12.15;;;;;;;;;;4936747;29;20115;-72
2022/03/06 04:55:18;;;;;;;20.17;12.02;;;;;;;;;;4934296;29;20401;-70
2022/03/06 04:57:46;;;;;;;20.25;11.90;;;;;;;;;;4923030;29;20143;-71
2022/03/06 05:00:13;;;;;;;20.88;12.23;;;;;;;;;;4930235;29;20478;-72
2022/03/06 05:02:39;;;;;;;20.67;12.85;;;;;;;;;;4934799;29;20035;-72
2022/03/06 05:05:05;;;;;;;19.45;12.68;;;;;;;;;;4937341;29;20034;-73
2022/03/06 05:07:31;;;;;;;20.58;12.65;;;;;;;;;;4936250;29;20028;-74
2022/03/06 05:09:57;;;;;;;18.95;12.25;;;;;;;;;;4936963;29;20024;-72
2022/03/06 05:12:26;;;;;;;22.70;12.73;;;;;;;;;;4937280;29;20031;-75
2022/03/06 05:14:52;;;;;;;18.67;12.27;;;;;;;;;;4936913;29;20173;-72
2022/03/06 05:17:19;;;;;;;19.35;13.13;;;;;;;;;;4936616;29;20031;-71
2022/03/06 05:19:45;;;;;;;23.70;12.32;;;;;;;;;;4936503;29;20107;-80
2022/03/06 05:22:11;;;;;;;21.65;13.55;;;;;;;;;;4936435;29;20035;-73
2022/03/06 05:24:37;;;;;;;20.45;12.57;;;;;;;;;;4936996;29;20050;-70
2022/03/06 05:27:07;;;;;;;21.73;13.35;;;;;;;;;;4934071;29;20059;-71
2022/03/06 05:29:33;;;;;;;20.90;13.10;;;;;;;;;;4936463;29;20030;-78
2022/03/06 05:32:00;;;;;;;19.73;12.85;;;;;;;;;;4940144;29;20046;-77
2022/03/06 05:34:26;;;;;;;21.00;12.45;;;;;;;;;;4936724;29;20040;-71
2022/03/06 05:36:52;;;;;;;19.48;12.65;;;;;;;;;;4934969;29;20034;-70
2022/03/06 05:39:20;;;;;;;23.13;13.48;;;;;;;;;;4936728;29;20031;-71
2022/03/06 05:41:47;;;;;;;21.33;13.55;;;;;;;;;;4935049;29;20156;-71
2022/03/06 05:44:13;;;;;;;21.23;12.98;;;;;;;;;;4925025;29;20898;-76
2022/03/06 05:46:39;;;;;;;21.45;13.63;;;;;;;;;;4920209;29;20123;-75
2022/03/06 05:49:12;;;;;;;22.13;12.75;;;;;;;;;;4938190;29;20027;-74
2022/03/06 05:51:41;;;;;;;22.98;14.82;;;;;;;;;;4937728;29;20031;-74
2022/03/06 05:54:08;;;;;;;22.38;13.30;;;;;;;;;;4936507;29;20043;-74
2022/03/06 05:56:34;;;;;;;21.88;14.02;;;;;;;;;;4944795;29;20385;-77
2022/03/06 05:59:03;;;;;;;22.95;13.90;;;;;;;;;;4943000;29;20032;-75
2022/03/06 06:01:29;;;;;;;20.60;13.10;;;;;;;;;;4939081;29;20074;-80
2022/03/06 06:03:56;;;;;;;19.92;13.25;;;;;;;;;;4928857;29;20031;-79
2022/03/06 06:06:22;;;;;;;20.70;13.25;;;;;;;;;;4942251;29;20030;-75
2022/03/06 06:08:48;;;;;;;19.88;12.85;;;;;;;;;;4944856;29;20118;-84
2022/03/06 06:11:14;;;;;;;23.27;14.52;;;;;;;;;;4948311;29;20087;-80
2022/03/06 06:13:50;;;;;;;21.90;13.40;;;;;;;;;;4941676;29;20402;-71
2022/03/06 06:16:16;;;;;;;24.58;14.48;;;;;;;;;;4935462;29;20032;-74
2022/03/06 06:18:42;;;;;;;21.60;13.82;;;;;;;;;;4933635;29;20564;-71
2022/03/06 06:21:08;;;;;;;22.58;13.75;;;;;;;;;;4939291;29;20451;-78
2022/03/06 06:23:34;;;;;;;20.65;13.30;;;;;;;;;;4937522;29;20051;-75
2022/03/06 06:26:00;;;;;;;20.98;13.43;;;;;;;;;;4950048;29;20040;-75
2022/03/06 06:28:27;;;;;;;20.55;14.02;;;;;;;;;;4944777;29;20122;-73
2022/03/06 06:30:53;;;;;;;21.85;14.30;;;;;;;;;;4938659;29;20458;-73
2022/03/06 06:33:21;;;;;;;23.52;14.98;;;;;;;;;;4944430;29;20027;-74
2022/03/06 06:35:47;;;;;;;23.48;14.88;;;;;;;;;;4939463;29;20082;-76
2022/03/06 06:38:15;;;;;;;20.23;13.65;;;;;;;;;;4939749;29;20032;-75
2022/03/06 06:40:42;;;;;;;23.85;14.80;;;;;;;;;;4939452;29;20087;-73
2022/03/06 06:43:08;;;;;;;22.92;14.40;;;;;;;;;;4941730;29;20434;-73
2022/03/06 06:45:39;;;;;;;22.02;14.95;;;;;;;;;;4941524;29;20070;-73
2022/03/06 06:48:07;;;;;;;26.60;14.55;;;;;;;;;;4941070;29;20110;-74
2022/03/06 06:50:34;;;;;;;21.25;14.13;;;;;;;;;;4938726;29;20061;-73
2022/03/06 06:53:00;;;;;;;20.67;14.48;;;;;;;;;;4940620;29;20048;-72
2022/03/06 06:55:26;;;;;;;20.95;14.30;;;;;;;;;;4943409;29;20043;-73
2022/03/06 06:57:55;;;;;;;23.27;14.52;;;;;;;;;;4938946;29;20038;-72
2022/03/06 07:00:21;;;;;;;25.23;15.00;;;;;;;;;;4943108;29;20544;-74
2022/03/06 07:02:47;;;;;;;21.77;14.27;;;;;;;;;;4946970;29;20379;-73
2022/03/06 07:05:14;;;;;;;22.75;14.35;;;;;;;;;;4946492;29;20063;-74
2022/03/06 07:07:41;;;;;;;20.77;14.45;;;;;;;;;;4939311;29;20080;-74
2022/03/06 07:10:07;;;;;;;25.50;15.10;;;;;;;;;;4934548;29;20119;-74
2022/03/06 07:12:47;;;;;;;21.65;14.05;;;;;;;;;;4933440;29;20032;-75
2022/03/06 07:15:15;;;;;;;20.88;14.18;;;;;;;;;;4937099;29;20043;-72
2022/03/06 07:17:42;;;;;;;25.63;14.07;;;;;;;;;;4963179;29;20027;-71
2022/03/06 07:20:09;;;;;;;21.83;14.80;;;;;;;;;;4939473;29;20031;-72
2022/03/06 07:22:37;;;;;;;20.27;13.85;;;;;;;;;;4944186;29;20090;-69
2022/03/06 07:25:04;;;;;;;22.05;14.52;;;;;;;;;;4938269;29;20024;-70
2022/03/06 07:27:30;;;;;;;24.50;15.02;;;;;;;;;;4943820;29;20024;-75
2022/03/06 07:29:56;;;;;;;21.42;14.43;;;;;;;;;;4946330;29;20028;-73
2022/03/06 07:32:23;;;;;;;24.35;14.48;;;;;;;;;;4937530;29;20031;-73
2022/03/06 07:34:49;;;;;;;21.30;14.52;;;;;;;;;;4936881;29;20051;-76
2022/03/06 07:37:19;;;;;;;28.17;16.15;;;;;;;;;;4942621;29;20027;-75
2022/03/06 07:39:51;;;;;;;22.98;14.85;;;;;;;;;;4942173;29;20039;-76
2022/03/06 07:42:17;;;;;;;23.10;14.82;;;;;;;;;;4935089;29;20040;-75
2022/03/06 07:44:43;;;;;;;22.23;15.13;;;;;;;;;;4944429;29;20082;-73
2022/03/06 07:47:09;;;;;;;28.02;18.17;;;;;;;;;;4936706;29;20020;-74
2022/03/06 07:49:35;;;;;;;25.77;19.20;;;;;;;;;;4938158;29;20032;-75
2022/03/06 07:52:01;;;;;;;25.35;17.77;;;;;;;;;;4941235;29;20035;-74
2022/03/06 07:54:27;;;;;;;22.15;15.40;;;;;;;;;;4948913;29;20118;-72
2022/03/06 07:56:53;;;;;;;23.75;16.50;;;;;;;;;;4949502;29;20086;-73
2022/03/06 07:59:21;;;;;;;22.33;15.88;;;;;;;;;;4936783;29;20029;-74
2022/03/06 08:01:47;;;;;;;24.50;16.73;;;;;;;;;;4939590;29;20046;-71
2022/03/06 08:04:13;;;;;;;23.48;15.57;;;;;;;;;;4941334;29;20032;-74
2022/03/06 08:06:50;;;;;;;29.27;17.13;;;;;;;;;;4942167;29;20027;-72
2022/03/06 08:09:17;;;;;;;27.73;18.85;;;;;;;;;;4942505;29;20099;-74
2022/03/06 08:11:46;;;;;;;31.88;21.30;;;;;;;;;;4948727;29;20131;-76
2022/03/06 08:14:12;;;;;;;28.67;19.88;;;;;;;;;;4936200;29;20039;-72
2022/03/06 08:16:47;;;;;;;33.67;22.40;;;;;;;;;;4940035;29;20032;-71
2022/03/06 08:19:17;;;;;;;31.65;20.20;;;;;;;;;;4939813;29;20110;-72
2022/03/06 08:21:48;;;;;;;35.83;21.05;;;;;;;;;;4926580;29;20035;-72
2022/03/06 08:24:24;;;;;;;35.20;21.85;;;;;;;;;;4936185;29;20094;-70
2022/03/06 08:26:50;;;;;;;30.52;20.83;;;;;;;;;;4937392;29;20046;-68
2022/03/06 08:29:18;;;;;;;28.75;19.50;;;;;;;;;;4940633;29;20074;-74
2022/03/06 08:31:50;;;;;;;31.80;20.52;;;;;;;;;;4939890;29;20023;-71
2022/03/06 08:34:18;;;;;;;32.92;20.77;;;;;;;;;;4938596;29;20434;-73
2022/03/06 08:36:45;;;;;;;31.80;22.17;;;;;;;;;;4942338;29;20107;-75
2022/03/06 08:39:13;;;;;;;30.65;20.40;;;;;;;;;;4939587;29;20042;-74
2022/03/06 08:41:39;;;;;;;57.17;36.35;;;;;;;;;;4946273;29;20020;-73
2022/03/06 08:44:05;;;;;;;43.55;28.20;;;;;;;;;;4933201;29;20043;-73
2022/03/06 08:46:31;;;;;;;49.42;32.95;;;;;;;;;;4944237;29;20038;-74
2022/03/06 08:48:57;;;;;;;39.88;25.60;;;;;;;;;;4948122;29;20032;-72
2022/03/06 08:51:23;;;;;;;36.75;23.98;;;;;;;;;;4950747;29;20027;-76
2022/03/06 08:53:57;;;;;;;35.63;23.95;;;;;;;;;;4945715;29;20043;-77
2022/03/06 08:56:23;;;;;;;37.92;25.17;;;;;;;;;;4946664;29;20032;-76
2022/03/06 08:58:49;;;;;;;80.03;45.97;;;;;;;;;;4944982;29;20110;-75
2022/03/06 09:01:15;;;;;;;47.45;33.55;;;;;;;;;;4939173;29;20051;-74
2022/03/06 09:03:41;;;;;;;34.47;23.08;;;;;;;;;;4939821;29;20035;-76
2022/03/06 09:06:07;;;;;;;35.40;23.80;;;;;;;;;;4938151;29;20536;-74
2022/03/06 09:08:33;;;;;;;32.03;22.77;;;;;;;;;;4938482;29;20024;-76
2022/03/06 09:10:59;;;;;;;33.72;23.85;;;;;;;;;;4937790;29;20099;-76
2022/03/06 09:13:25;;;;;;;34.22;23.90;;;;;;;;;;4943421;29;20024;-75
2022/03/06 09:15:52;;;;;;;42.83;25.67;;;;;;;;;;4946044;29;20413;-75
2022/03/06 09:18:20;;;;;;;35.67;24.63;;;;;;;;;;4947072;29;20028;-74
2022/03/06 09:20:46;;;;;;;39.92;25.67;;;;;;;;;;4933013;29;20110;-74
2022/03/06 09:23:14;;;;;;;41.08;27.10;;;;;;;;;;4936569;29;20008;-71
2022/03/06 09:25:40;;;;;;;42.78;26.85;;;;;;;;;;4949167;28;20056;-76
2022/03/06 09:28:07;;;;;;;43.45;27.92;;;;;;;;;;4954946;29;20023;-73
2022/03/06 09:30:33;;;;;;;39.47;26.48;;;;;;;;;;4943795;29;20096;-71
2022/03/06 09:33:01;;;;;;;42.17;27.05;;;;;;;;;;4951024;29;20086;-70
2022/03/06 09:35:28;;;;;;;44.08;27.88;;;;;;;;;;4950651;29;20034;-73
2022/03/06 09:38:03;;;;;;;43.30;28.52;;;;;;;;;;4949539;29;20043;-73
2022/03/06 09:40:29;;;;;;;47.13;28.33;;;;;;;;;;4940139;29;20110;-74
2022/03/06 09:43:01;;;;;;;46.85;30.55;;;;;;;;;;4946884;29;20027;-73
2022/03/06 09:45:29;;;;;;;43.20;30.23;;;;;;;;;;4943864;29;20080;-76
2022/03/06 09:47:58;;;;;;;48.38;29.98;;;;;;;;;;4955761;29;20123;-74
2022/03/06 09:50:31;;;;;;;47.00;30.70;;;;;;;;;;4937583;29;20034;-75
2022/03/06 09:52:57;;;;;;;;;;;;;;;;;;4946562;29;20497;-77
2022/03/06 09:55:24;;;;;;;44.42;29.80;;;;;;;;;;4950138;29;19958;-74
2022/03/06 09:57:59;;;;;;;48.25;32.65;;;;;;;;;;4948739;29;20028;-75
2022/03/06 10:00:27;;;;;;;47.60;30.98;;;;;;;;;;4943994;29;20122;-76
2022/03/06 10:03:00;;;;;;;45.30;30.38;;;;;;;;;;4944707;29;20028;-74
2022/03/06 10:05:27;;;;;;;48.65;30.98;;;;;;;;;;4939467;29;20537;-73
2022/03/06 10:07:53;;;;;;;47.85;30.98;;;;;;;;;;4946409;29;20027;-70
2022/03/06 10:10:38;;;;;;;52.03;32.22;;;;;;;;;;4950792;29;20366;-72
2022/03/06 10:13:08;;;;;;;55.95;32.50;;;;;;;;;;4957337;29;20038;-71
2022/03/06 10:16:03;;;;;;;49.85;33.67;;;;;;;;;;4951116;29;20047;-75
2022/03/06 10:18:46;;;;;;;48.25;31.17;;;;;;;;;;4942090;29;20032;-75
2022/03/06 10:21:16;;;;;;;46.42;30.65;;;;;;;;;;4948923;29;20055;-74
2022/03/06 10:23:43;;;;;;;53.00;33.63;;;;;;;;;;4955368;29;20027;-75
2022/03/06 10:26:10;;;;;;;51.55;32.65;;;;;;;;;;4947246;29;20031;-73
2022/03/06 10:28:54;;;;;;;55.40;35.03;;;;;;;;;;4942891;29;20035;-71
2022/03/06 10:31:21;;;;;;;50.75;34.20;;;;;;;;;;4969242;28;20023;-72
2022/03/06 10:34:05;;;;;;;56.05;36.40;;;;;;;;;;4943134;29;20016;-71
2022/03/06 10:36:32;;;;;;;55.40;36.35;;;;;;;;;;4928946;29;20043;-70
2022/03/06 10:38:59;;;;;;;57.08;36.92;;;;;;;;;;4942896;29;20042;-72
2022/03/06 10:41:33;;;;;;;63.10;38.92;;;;;;;;;;4944481;29;20115;-73
2022/03/06 10:43:59;;;;;;;63.17;40.42;;;;;;;;;;4938028;29;20094;-72
2022/03/06 10:46:25;;;;;;;62.45;39.55;;;;;;;;;;4939666;29;20036;-69
2022/03/06 10:48:58;;;;;;;71.15;45.08;;;;;;;;;;4943589;29;20026;-74
2022/03/06 10:51:25;;;;;;;66.38;42.97;;;;;;;;;;4947591;29;20046;-70
2022/03/06 10:53:58;;;;;;;60.35;36.60;;;;;;;;;;4955992;29;20023;-77
2022/03/06 10:56:25;;;;;;;63.72;38.92;;;;;;;;;;4947306;29;20036;-71
2022/03/06 10:58:51;;;;;;;64.95;40.40;;;;;;;;;;4966714;23;20051;-71
2022/03/06 11:01:17;;;;;;;66.63;41.35;;;;;;;;;;4942073;29;20035;-72
2022/03/06 11:03:44;;;;;;;64.80;41.25;;;;;;;;;;4951679;29;20023;-73
2022/03/06 11:06:11;;;;;;;67.35;42.25;;;;;;;;;;4937674;29;20047;-72
2022/03/06 11:08:38;;;;;;;66.65;41.40;;;;;;;;;;4930480;29;20437;-73
2022/03/06 11:11:15;;;;;;;70.15;43.38;;;;;;;;;;4943402;29;20465;-70
2022/03/06 11:13:41;;;;;;;74.57;45.72;;;;;;;;;;4944667;29;20042;-73
2022/03/06 11:16:07;;;;;;;78.50;45.45;;;;;;;;;;4950059;29;20122;-74
2022/03/06 11:18:36;;;;;;;81.28;46.75;;;;;;;;;;4930283;29;20545;-71
2022/03/06 11:21:03;;;;;;;83.45;46.95;;;;;;;;;;4958813;29;20136;-73
2022/03/06 11:23:46;;;;;;;68.00;42.20;;;;;;;;;;4951302;29;20031;-75
2022/03/06 11:26:15;;;;;;;64.07;37.20;;;;;;;;;;4957175;28;20032;-74
2022/03/06 11:28:51;;;;;;;69.85;42.22;;;;;;;;;;4944901;29;20102;-74
2022/03/06 11:31:17;;;;;;;67.00;41.13;;;;;;;;;;4950596;29;20042;-71
2022/03/06 11:34:03;;;;;;;53.63;36.15;;;;;;;;;;4939345;29;20067;-71
2022/03/06 11:36:47;;;;;;;51.17;32.05;;;;;;;;;;4929657;29;20035;-73
2022/03/06 11:39:29;;;;;;;49.33;33.67;;;;;;;;;;4951911;29;20070;-73
2022/03/06 11:41:55;;;;;;;50.63;33.53;;;;;;;;;;4944533;29;20042;-76
2022/03/06 11:44:35;;;;;;;52.55;31.33;;;;;;;;;;4945836;29;20107;-74
2022/03/06 11:47:11;;;;;;;46.72;29.90;;;;;;;;;;4951277;29;20055;-73
2022/03/06 11:49:37;;;;;;;46.33;29.65;;;;;;;;;;4933475;29;20036;-73
2022/03/06 11:52:23;;;;;;;50.33;32.60;;;;;;;;;;4943361;29;20087;-72
2022/03/06 11:54:49;;;;;;;53.17;33.70;;;;;;;;;;4937855;29;20126;-74
2022/03/06 11:57:34;;;;;;;51.15;34.90;;;;;;;;;;4937962;29;20517;-73
2022/03/06 12:00:16;;;;;;;54.53;34.38;;;;;;;;;;4938756;29;20024;-73
2022/03/06 12:03:01;;;;;;;49.58;31.88;;;;;;;;;;4926029;29;20050;-70
2022/03/06 12:05:47;;;;;;;58.22;34.15;;;;;;;;;;4927862;29;20055;-72
2022/03/06 12:08:18;;;;;;;48.03;28.00;;;;;;;;;;4924896;29;20561;-72
2022/03/06 12:10:44;;;;;;;49.72;32.90;;;;;;;;;;4928935;29;20127;-71
2022/03/06 12:13:20;;;;;;;51.42;32.70;;;;;;;;;;4924939;29;20039;-72
2022/03/06 12:16:08;;;;;;;51.78;33.25;;;;;;;;;;4922985;29;20040;-71
2022/03/06 12:18:34;;;;;;;51.65;31.55;;;;;;;;;;4935856;29;20042;-71
2022/03/06 12:21:04;;;;;;;56.50;35.60;;;;;;;;;;4937005;29;20035;-70
2022/03/06 12:23:32;;;;;;;62.70;39.30;;;;;;;;;;4936183;29;20473;-73
2022/03/06 12:26:04;;;;;;;49.05;30.67;;;;;;;;;;4941492;29;20433;-70
2022/03/06 12:28:37;;;;;;;45.72;26.90;;;;;;;;;;4936899;29;20118;-71
2022/03/06 12:34:36;;;;;;;47.25;30.27;;;;;;;;;;4946706;29;20042;-70
2022/03/06 12:37:03;;;;;;;44.78;29.08;;;;;;;;;;4937566;29;20051;-70
2022/03/06 12:43:01;;;;;;;57.75;36.47;;;;;;;;;;4914135;29;20104;-69
2022/03/06 12:45:27;;;;;;;55.40;36.47;;;;;;;;;;4914653;29;20135;-69
2022/03/06 12:47:53;;;;;;;52.67;34.17;;;;;;;;;;4914879;29;20479;-72
2022/03/06 12:50:21;;;;;;;58.03;36.38;;;;;;;;;;4907491;29;20078;-71
2022/03/06 12:52:47;;;;;;;62.00;38.60;;;;;;;;;;4914304;29;20032;-70
2022/03/06 12:55:15;;;;;;;60.78;38.63;;;;;;;;;;4914735;29;20040;-70
2022/03/06 13:00:29;;;;;;;62.70;39.95;;;;;;;;;;4908579;29;20124;-70
2022/03/06 13:02:56;;;;;;;62.28;38.97;;;;;;;;;;4913629;29;20101;-70
2022/03/06 13:05:23;;;;;;;60.47;36.08;;;;;;;;;;4913995;29;20483;-69
2022/03/06 13:07:49;;;;;;;61.00;38.13;;;;;;;;;;4897120;29;20036;-71
2022/03/06 13:10:22;;;;;;;61.10;39.50;;;;;;;;;;4913040;29;20119;-73
2022/03/06 13:12:49;;;;;;;69.68;40.63;;;;;;;;;;4897853;29;20039;-74
2022/03/06 13:15:15;;;;;;;61.10;35.25;;;;;;;;;;4916021;29;20066;-73
2022/03/06 13:17:41;;;;;;;73.10;40.53;;;;;;;;;;4921198;29;20402;-73
2022/03/06 13:20:09;;;;;;;61.28;37.92;;;;;;;;;;4927080;29;20037;-73
2022/03/06 13:22:35;;;;;;;67.68;40.30;;;;;;;;;;4926213;29;20474;-71
2022/03/06 13:25:02;;;;;;;50.15;29.27;;;;;;;;;;4927030;29;20038;-70
2022/03/06 13:27:32;;;;;;;65.28;36.95;;;;;;;;;;4928996;29;20106;-71
2022/03/06 13:30:18;;;;;;;69.35;39.38;;;;;;;;;;4926477;29;20406;-71
2022/03/06 13:32:52;;;;;;;;;;;;;;;;;;4929885;29;20032;-71
2022/03/06 13:35:40;;;;;;;67.63;40.00;;;;;;;;;;4924733;29;19915;-71
2022/03/06 13:38:08;;;;;;;72.25;39.97;;;;;;;;;;4906071;29;20379;-72
2022/03/06 13:40:37;;;;;;;75.97;43.58;;;;;;;;;;4917481;29;20079;-74
2022/03/06 13:43:09;;;;;;;80.95;47.55;;;;;;;;;;4921320;29;20032;-73
2022/03/06 13:45:36;;;;;;;87.53;50.30;;;;;;;;;;4949668;28;20079;-71
2022/03/06 13:48:04;;;;;;;81.68;46.15;;;;;;;;;;4921732;29;20428;-76
2022/03/06 13:50:33;;;;;;;84.25;48.72;;;;;;;;;;4918231;29;20103;-75
2022/03/06 13:52:59;;;;;;;80.55;47.03;;;;;;;;;;4927056;29;20135;-73
2022/03/06 13:55:38;;;;;;;88.95;49.92;;;;;;;;;;4930853;29;20066;-73
2022/03/06 13:58:09;;;;;;;91.03;47.67;;;;;;;;;;4891861;29;20099;-74
2022/03/06 14:00:54;;;;;;;;;;;;;;;;;;;;;
2022/03/06 14:03:36;;;;;;;80.65;47.40;;;;;;;;;;4923974;29;20127;-71
2022/03/06 14:06:29;;;;;;;77.55;42.15;;;;;;;;;;4934300;29;20036;-70
2022/03/06 14:08:58;;;;;;;83.50;46.85;;;;;;;;;;4945410;28;20048;-71
2022/03/06 14:11:25;;;;;;;85.07;45.28;;;;;;;;;;4921823;29;20088;-74
2022/03/06 14:13:53;;;;;;;79.70;46.92;;;;;;;;;;4921789;29;20036;-74
2022/03/06 14:16:19;;;;;;;96.13;50.22;;;;;;;;;;4930216;29;20378;-74
2022/03/06 14:18:50;;;;;;;92.93;49.95;;;;;;;;;;4933568;29;20060;-74
2022/03/06 14:21:31;;;;;;;83.22;43.30;;;;;;;;;;4929529;29;20036;-73
2022/03/06 14:24:11;;;;;;;85.88;48.13;;;;;;;;;;4956698;29;20042;-74
2022/03/06 14:26:45;;;;;;;79.95;45.30;;;;;;;;;;4929717;29;20119;-74
2022/03/06 14:29:14;;;;;;;79.95;45.75;;;;;;;;;;4935638;29;20114;-75
2022/03/06 14:31:44;;;;;;;84.13;45.83;;;;;;;;;;4930904;29;20490;-75
2022/03/06 14:34:13;;;;;;;99.72;52.35;;;;;;;;;;4927619;29;20057;-74
2022/03/06 14:36:40;;;;;;;92.20;50.67;;;;;;;;;;4923749;29;20071;-75